Terminal Aerodrome Forecast
Issued by NWS

Home | Current Version | Previous Version | Text Only | Print | Product List | Glossary On
Versions: 1 2 3 4 5 6 7 8 9 10 11 12 13 14 15 16 17 18 19 20 21 22 23 24 25 26 27 28 29 30 31 32 33 34 35 36
000
FTUS41 KRNK 301137
TAFLWB
TAF
KLWB 301137Z 3012/3112 00000KT 4SM BR BKN150
     FM301400 24003KT P6SM SCT050 BKN110
     FM302000 22004KT 6SM -SHRA BKN050
     FM310400 17001KT 6SM BR OVC050=

USA.gov is the U.S. government's official web portal to all federal, state and local government web resources and services.